ADDS METAR Data INFO
IDs: Format: Raw Decoded Include TAF

Data at: 2049 UTC 25 Sep 2016

Region: TOP
KATL 251952Z VRB04KT 10SM FEW065 32/16 A3004 RMK AO2 SLP161 T03220156 $

KBOS 251954Z 34013KT 10SM FEW060 18/M01 A3007 RMK AO2 SLP181 T01831006

KBWI 251954Z 06004KT 10SM FEW060 SCT250 22/06 A3014 RMK AO2 SLP207 T02170061 $

KCLE 251951Z 01010KT 10SM FEW250 23/09 A3015 RMK AO2 SLP208 T02280094 $

KCLT 251952Z 18006KT 10SM SCT049 31/18 A3006 RMK AO2 SLP170 T03110183

KCVG 251952Z 00000KT 10SM SCT045 30/18 A3007 RMK AO2 SLP172 T03000178

KDCA 251952Z 11003KT 10SM BKN055 BKN250 23/08 A3014 RMK AO2 SLP207 T02330078

KDEN 251953Z 00000KT 10SM FEW080 18/M01 A3039 RMK AO2 SLP254 T01781011

KDFW 251953Z 02005KT 10SM -RA SCT010 BKN080 BKN130 OVC250 26/22 A3002 RMK AO2 LTG DSNT SE RAB48 SLP156 P0000 T02560222

KDTW 251953Z 11006KT 10SM FEW140 BKN220 22/08 A3013 RMK AO2 SLP200 T02220083

KEWR 251951Z 27008KT 10SM FEW260 21/01 A3013 RMK AO2 SLP203 T02110006 $

KFLL 251953Z 13009KT 10SM FEW027 FEW180 BKN250 29/23 A2996 RMK AO2 SLP146 T02940233

KIAD 251952Z 21004KT 10SM SCT046 SCT250 21/08 A3015 RMK AO2 SLP207 T02110078

KIAH 252044Z 33006KT 5SM -TSRA BR FEW023 SCT034CB BKN055 OVC130 23/22 A2998 RMK AO2 PK WND 15037/2001 LTG DSNT W AND NW RAB1956 OCNL LTGICCG W-NE TS W-NE MOV N P0041 T02330217 $

KJFK 251951Z 33009KT 10SM FEW250 21/M01 A3014 RMK AO2 SLP206 T02061011

KLAS 251956Z 05019G23KT 10SM CLR 29/M02 A3020 RMK AO2 PK WND 06026/1859 SLP206 T02891022

KLAX 251953Z 27013KT 10SM CLR 29/10 A2996 RMK AO2 SLP145 T02890100

KLGA 251951Z 01006KT 10SM FEW200 FEW260 21/01 A3013 RMK AO2 SLP202 T02110006

KMCO 252018Z 04016G23KT 6SM -TSRA BR BKN045CB BKN100 BKN250 27/20 A2999 RMK AO2 WSHFT 1958 RAB16 FRQ LTGIC OHD TS OHD MOV S CB DSNT SE-S P0000 T02720200

KMDW 252022Z COR VRB06KT 10SM FEW034 FEW060 SCT110 BKN240 26/21 A2994 RMK AO2 PK WND 17026/2009 RAB1958E21 TSE21 P0001 T02610206

KMEM 251954Z VRB03KT 10SM FEW075 SCT120 36/18 A2999 RMK AO2 SLP151 T03560178

KMIA 251953Z 10008KT 10SM SCT030 SCT100 BKN250 29/24 A2997 RMK AO2 SLP148 CB DSNT W-NW T02940239 $

KMSP 251953Z 24013G20KT 10SM FEW030 OVC048 18/11 A2989 RMK AO2 SLP119 T01830106

KORD 251951Z 18013KT 10SM FEW042 FEW100 SCT200 BKN250 29/19 A2994 RMK AO2 SLP133 CB DSNT S AND DSNT NW T02940194

KPDX 251953Z 31007KT 10SM FEW070 FEW250 22/10 A3032 RMK AO2 SLP267 T02220100 $

KPHL 251954Z 34005KT 10SM SCT280 22/05 A3014 RMK AO2 SLP206 T02220050

KPHX 251951Z 08009KT 10SM CLR 33/01 A2995 RMK AO2 SLP122 T03330006

KPIT 251951Z 32003KT 10SM BKN250 24/06 A3012 RMK AO2 SLP203 T02440061

KSAN 251951Z 28010KT 10SM CLR 31/08 A2994 RMK AO2 SLP138 T03110083 $

KSEA 251953Z VRB04KT 10SM SCT033 BKN070 BKN140 22/10 A3040 RMK AO2 SLP297 T02220100

KSFO 251956Z 00000KT 10SM CLR 29/11 A3003 RMK AO2 SLP169 T02890106

KSLC 251954Z AUTO 33012KT 10SM CLR 18/07 A3045 RMK AO2 SLP285 T01830067

KSTL 251951Z 26008KT 10SM SCT048 BKN200 32/19 A3001 RMK AO2 SLP150 TCU DSNT NE-E AND DSNT NW T03220189 $

KTPA 251953Z 25005KT 10SM SCT035 SCT200 32/23 A2996 RMK AO2 LTG DSNT N AND NW SLP143 CB DSNT N-NE AND E T03220228